Time;durP1;ratioP1;P1;durP2;ratioP2;P2;SDS_P1;SDS_P2;PMS_P1;PMS_P2;Temp;Humidity;BMP_temperature;BMP_pressure;BME280_temperature;BME280_humidity;BME280_pressure;Samples;Min_cycle;Max_cycle;Signal;HPM_P1;HPM_P2
2021/11/04 00:01:32;;;;;;;5.97;3.10;;;;;;;;;;5052373;28;20267;-57
2021/11/04 00:03:58;;;;;;;4.57;3.05;;;;;;;;;;5052193;28;20375;-58
2021/11/04 00:06:24;;;;;;;4.35;3.35;;;;;;;;;;5051339;28;20033;-58
2021/11/04 00:08:50;;;;;;;3.58;2.97;;;;;;;;;;5052277;28;20044;-58
2021/11/04 00:11:16;;;;;;;3.83;3.03;;;;;;;;;;5052195;28;20025;-56
2021/11/04 00:13:42;;;;;;;3.97;2.78;;;;;;;;;;5052349;28;20025;-57
2021/11/04 00:16:10;;;;;;;3.95;2.20;;;;;;;;;;5051847;28;20036;-58
2021/11/04 00:18:36;;;;;;;3.10;2.33;;;;;;;;;;5052062;28;20086;-57
2021/11/04 00:21:02;;;;;;;5.68;2.38;;;;;;;;;;5051949;28;20121;-57
2021/11/04 00:23:28;;;;;;;3.42;2.28;;;;;;;;;;5052251;28;20112;-56
2021/11/04 00:25:54;;;;;;;3.17;1.92;;;;;;;;;;5051545;28;20040;-58
2021/11/04 00:28:20;;;;;;;3.42;2.35;;;;;;;;;;5051412;28;20064;-56
2021/11/04 00:30:46;;;;;;;2.42;1.65;;;;;;;;;;5051826;28;20057;-57
2021/11/04 00:33:12;;;;;;;2.55;1.60;;;;;;;;;;5051904;28;20041;-57
2021/11/04 00:35:38;;;;;;;3.13;1.90;;;;;;;;;;5051869;28;20045;-58
2021/11/04 00:38:05;;;;;;;3.63;1.80;;;;;;;;;;5051025;28;20060;-57
2021/11/04 00:40:31;;;;;;;3.22;2.17;;;;;;;;;;5051803;28;20028;-58
2021/11/04 00:42:57;;;;;;;2.50;1.70;;;;;;;;;;5051986;28;20410;-57
2021/11/04 00:45:23;;;;;;;2.15;1.40;;;;;;;;;;5051767;28;20033;-57
2021/11/04 00:47:50;;;;;;;1.83;1.10;;;;;;;;;;5051115;28;20033;-57
2021/11/04 00:50:16;;;;;;;3.33;1.75;;;;;;;;;;5051693;28;20059;-57
2021/11/04 00:52:42;;;;;;;3.28;1.33;;;;;;;;;;5051815;28;20044;-56
2021/11/04 00:55:09;;;;;;;3.25;1.88;;;;;;;;;;5051879;28;20025;-57
2021/11/04 00:57:35;;;;;;;2.33;1.65;;;;;;;;;;5050621;28;20029;-58
2021/11/04 01:00:01;;;;;;;2.50;1.80;;;;;;;;;;5051813;28;20462;-57
2021/11/04 01:02:27;;;;;;;2.00;1.40;;;;;;;;;;5051486;28;20021;-58
2021/11/04 01:04:53;;;;;;;2.20;1.33;;;;;;;;;;5051442;28;20029;-57
2021/11/04 01:07:20;;;;;;;3.00;1.60;;;;;;;;;;5050519;28;20040;-58
2021/11/04 01:09:46;;;;;;;2.30;1.70;;;;;;;;;;5051522;28;20187;-57
2021/11/04 01:12:12;;;;;;;3.28;1.75;;;;;;;;;;5051288;28;20211;-57
2021/11/04 01:14:38;;;;;;;1.88;1.17;;;;;;;;;;5051544;28;20399;-57
2021/11/04 01:17:04;;;;;;;4.45;2.00;;;;;;;;;;5050759;28;20056;-58
2021/11/04 01:19:30;;;;;;;2.60;1.88;;;;;;;;;;5051208;28;20032;-58
2021/11/04 01:21:56;;;;;;;2.83;1.50;;;;;;;;;;5051724;28;20052;-54
2021/11/04 01:24:22;;;;;;;3.78;1.65;;;;;;;;;;5051561;28;20060;-56
2021/11/04 01:26:48;;;;;;;2.75;1.80;;;;;;;;;;5050474;28;20450;-57
2021/11/04 01:29:14;;;;;;;3.25;1.67;;;;;;;;;;5051459;28;20029;-57
2021/11/04 01:31:40;;;;;;;1.95;1.15;;;;;;;;;;5051172;28;20032;-58
2021/11/04 01:34:06;;;;;;;1.98;1.33;;;;;;;;;;5051107;28;20102;-58
2021/11/04 01:36:32;;;;;;;2.30;1.60;;;;;;;;;;5052759;28;20043;-56
2021/11/04 01:38:59;;;;;;;2.15;1.48;;;;;;;;;;5055114;28;20127;-57
2021/11/04 01:41:25;;;;;;;2.33;1.45;;;;;;;;;;5054744;28;20087;-58
2021/11/04 01:43:51;;;;;;;2.15;1.55;;;;;;;;;;5054857;28;20414;-57
2021/11/04 01:46:20;;;;;;;1.80;1.10;;;;;;;;;;5053967;28;20056;-57
2021/11/04 01:48:47;;;;;;;1.80;1.10;;;;;;;;;;5054629;28;20372;-57
2021/11/04 01:51:13;;;;;;;2.65;1.10;;;;;;;;;;5054982;28;20037;-57
2021/11/04 01:53:39;;;;;;;1.73;0.73;;;;;;;;;;5054854;28;20025;-57
2021/11/04 01:56:05;;;;;;;2.67;1.45;;;;;;;;;;5054672;28;20040;-57
2021/11/04 01:58:31;;;;;;;2.45;1.15;;;;;;;;;;5053878;28;20036;-57
2021/11/04 02:00:57;;;;;;;1.80;1.05;;;;;;;;;;5054503;28;20132;-57
2021/11/04 02:03:42;;;;;;;1.85;1.08;;;;;;;;;;5042152;28;20060;-57
2021/11/04 02:06:09;;;;;;;1.92;1.25;;;;;;;;;;5034204;28;20447;-58
2021/11/04 02:08:39;;;;;;;2.00;0.95;;;;;;;;;;5034320;28;20065;-57
2021/11/04 02:11:09;;;;;;;2.65;1.00;;;;;;;;;;5034632;28;20036;-57
2021/11/04 02:13:39;;;;;;;1.90;1.30;;;;;;;;;;5034144;28;20021;-57
2021/11/04 02:16:06;;;;;;;2.35;1.52;;;;;;;;;;5034568;28;20045;-57
2021/11/04 02:18:33;;;;;;;2.08;1.27;;;;;;;;;;5033786;28;20164;-57
2021/11/04 02:21:18;;;;;;;1.75;1.05;;;;;;;;;;5034603;28;20022;-57
2021/11/04 02:23:49;;;;;;;2.17;1.20;;;;;;;;;;5034215;28;20091;-57
2021/11/04 02:26:17;;;;;;;2.15;1.13;;;;;;;;;;5033247;28;20489;-58
2021/11/04 02:28:44;;;;;;;1.90;0.98;;;;;;;;;;5033815;28;20032;-58
2021/11/04 02:31:10;;;;;;;1.90;1.08;;;;;;;;;;5034221;28;20029;-56
2021/11/04 02:33:37;;;;;;;2.03;1.10;;;;;;;;;;5034135;28;20036;-57
2021/11/04 02:36:04;;;;;;;1.45;0.85;;;;;;;;;;5034385;28;20041;-57
2021/11/04 02:38:31;;;;;;;2.00;1.10;;;;;;;;;;5033379;28;20030;-58
2021/11/04 02:40:58;;;;;;;2.20;1.23;;;;;;;;;;5033725;28;20526;-57
2021/11/04 02:43:24;;;;;;;2.20;0.95;;;;;;;;;;5033824;28;20037;-57
2021/11/04 02:45:52;;;;;;;1.52;0.80;;;;;;;;;;5033856;28;20121;-58
2021/11/04 02:48:19;;;;;;;2.85;0.77;;;;;;;;;;5033433;28;20041;-57
2021/11/04 02:50:46;;;;;;;1.90;0.85;;;;;;;;;;5033621;28;20029;-57
2021/11/04 02:53:14;;;;;;;1.70;0.80;;;;;;;;;;5033463;28;20510;-57
2021/11/04 02:55:40;;;;;;;1.88;1.02;;;;;;;;;;5033454;28;20383;-58
2021/11/04 02:58:07;;;;;;;1.90;1.08;;;;;;;;;;5032861;28;20029;-57
2021/11/04 03:00:34;;;;;;;2.88;1.67;;;;;;;;;;5033592;28;20374;-57
2021/11/04 03:03:00;;;;;;;2.10;1.30;;;;;;;;;;5042425;28;20029;-57
2021/11/04 03:05:26;;;;;;;1.77;1.10;;;;;;;;;;5053535;28;20421;-57
2021/11/04 03:07:52;;;;;;;2.08;1.20;;;;;;;;;;5052814;28;20484;-57
2021/11/04 03:10:22;;;;;;;2.83;1.38;;;;;;;;;;5053501;28;20068;-57
2021/11/04 03:12:48;;;;;;;2.15;1.20;;;;;;;;;;5053185;28;20060;-58
2021/11/04 03:15:17;;;;;;;3.13;1.33;;;;;;;;;;5053203;28;20048;-55
2021/11/04 03:17:43;;;;;;;1.50;1.20;;;;;;;;;;5052283;28;20036;-57
2021/11/04 03:20:10;;;;;;;1.70;1.05;;;;;;;;;;5053084;28;20029;-57
2021/11/04 03:22:37;;;;;;;2.60;1.20;;;;;;;;;;5052809;28;20044;-57
2021/11/04 03:25:03;;;;;;;1.92;1.15;;;;;;;;;;5053266;28;20033;-57
2021/11/04 03:27:30;;;;;;;1.73;1.15;;;;;;;;;;5052167;28;20065;-56
2021/11/04 03:29:56;;;;;;;1.33;0.80;;;;;;;;;;5052899;28;20130;-56
2021/11/04 03:32:23;;;;;;;1.70;0.93;;;;;;;;;;5052648;28;20025;-57
2021/11/04 03:34:50;;;;;;;1.10;0.60;;;;;;;;;;5052468;28;20447;-58
2021/11/04 03:37:18;;;;;;;1.73;0.77;;;;;;;;;;5051920;28;20124;-57
2021/11/04 03:39:44;;;;;;;1.58;0.88;;;;;;;;;;5052749;28;20043;-57
2021/11/04 03:42:11;;;;;;;1.00;0.60;;;;;;;;;;5052836;28;20029;-57
2021/11/04 03:44:39;;;;;;;0.90;0.60;;;;;;;;;;5052349;28;20116;-57
2021/11/04 03:47:05;;;;;;;1.88;0.68;;;;;;;;;;5051888;28;20459;-57
2021/11/04 03:49:32;;;;;;;1.63;0.65;;;;;;;;;;5052315;28;20036;-57
2021/11/04 03:51:58;;;;;;;1.13;0.70;;;;;;;;;;5052678;28;20082;-57
2021/11/04 03:54:24;;;;;;;1.52;0.82;;;;;;;;;;5052483;28;20420;-57
2021/11/04 03:56:51;;;;;;;0.88;0.43;;;;;;;;;;5051756;28;20063;-57
2021/11/04 03:59:17;;;;;;;0.85;0.40;;;;;;;;;;5051916;28;20025;-56
2021/11/04 04:01:43;;;;;;;0.75;0.45;;;;;;;;;;5052249;28;20032;-56
2021/11/04 04:04:09;;;;;;;0.93;0.50;;;;;;;;;;5033627;28;20029;-57
2021/11/04 04:06:35;;;;;;;1.08;0.63;;;;;;;;;;5031788;28;20037;-58
2021/11/04 04:09:02;;;;;;;1.27;0.77;;;;;;;;;;5032368;28;20025;-57
2021/11/04 04:11:28;;;;;;;1.42;0.80;;;;;;;;;;5032348;28;20033;-57
2021/11/04 04:13:57;;;;;;;1.00;0.57;;;;;;;;;;5032259;28;20025;-57
2021/11/04 04:16:23;;;;;;;1.58;0.80;;;;;;;;;;5031399;28;20091;-57
2021/11/04 04:18:50;;;;;;;1.20;0.60;;;;;;;;;;5031929;28;20022;-57
2021/11/04 04:21:16;;;;;;;5.38;1.10;;;;;;;;;;5032137;28;20498;-57
2021/11/04 04:23:42;;;;;;;1.25;0.65;;;;;;;;;;5032195;28;20029;-58
2021/11/04 04:26:08;;;;;;;1.08;0.60;;;;;;;;;;5031923;28;20116;-58
2021/11/04 04:28:35;;;;;;;0.95;0.70;;;;;;;;;;5031927;28;20028;-57
2021/11/04 04:31:01;;;;;;;1.00;0.50;;;;;;;;;;5026717;28;20463;-56
2021/11/04 04:33:27;;;;;;;2.47;1.02;;;;;;;;;;5031916;28;20136;-58
2021/11/04 04:35:55;;;;;;;1.13;0.60;;;;;;;;;;5032498;28;20146;-57
2021/11/04 04:38:21;;;;;;;1.17;0.60;;;;;;;;;;5031521;28;20449;-57
2021/11/04 04:40:47;;;;;;;1.95;1.02;;;;;;;;;;5032212;28;20118;-57
2021/11/04 04:43:13;;;;;;;1.70;0.95;;;;;;;;;;5031935;28;20028;-57
2021/11/04 04:45:39;;;;;;;2.30;1.35;;;;;;;;;;5049464;28;20033;-58
2021/11/04 04:48:05;;;;;;;1.52;0.80;;;;;;;;;;5050842;28;20039;-57
2021/11/04 04:50:31;;;;;;;1.45;0.75;;;;;;;;;;5052126;28;20040;-57
2021/11/04 04:52:57;;;;;;;2.67;0.90;;;;;;;;;;5052017;28;20442;-57
2021/11/04 04:55:24;;;;;;;3.80;0.60;;;;;;;;;;5051619;28;20057;-58
2021/11/04 04:57:50;;;;;;;1.27;0.57;;;;;;;;;;5051075;28;20029;-57
2021/11/04 05:00:16;;;;;;;1.27;0.50;;;;;;;;;;5050325;28;20032;-56
2021/11/04 05:02:43;;;;;;;1.25;0.40;;;;;;;;;;5051368;28;20060;-57
2021/11/04 05:05:10;;;;;;;1.75;0.88;;;;;;;;;;5051388;28;20128;-57
2021/11/04 05:07:36;;;;;;;1.27;0.73;;;;;;;;;;5050843;28;20033;-57
2021/11/04 05:10:02;;;;;;;1.17;0.88;;;;;;;;;;5051649;28;20033;-57
2021/11/04 05:12:29;;;;;;;2.15;1.15;;;;;;;;;;5055406;28;20037;-58
2021/11/04 05:14:55;;;;;;;1.00;0.60;;;;;;;;;;5054990;28;20112;-57
2021/11/04 05:17:21;;;;;;;1.08;0.52;;;;;;;;;;5055078;28;20479;-57
2021/11/04 05:19:47;;;;;;;1.58;0.93;;;;;;;;;;5055491;28;20379;-56
2021/11/04 05:22:13;;;;;;;0.95;0.55;;;;;;;;;;5055374;28;20025;-57
2021/11/04 05:24:38;;;;;;;1.30;0.73;;;;;;;;;;5054905;28;20104;-57
2021/11/04 05:27:06;;;;;;;0.93;0.50;;;;;;;;;;5054176;28;20036;-57
2021/11/04 05:29:32;;;;;;;1.15;0.60;;;;;;;;;;5055075;28;20029;-57
2021/11/04 05:31:59;;;;;;;1.10;0.50;;;;;;;;;;5055195;28;20053;-56
2021/11/04 05:34:25;;;;;;;1.17;0.50;;;;;;;;;;5054918;28;20106;-58
2021/11/04 05:36:51;;;;;;;3.03;1.15;;;;;;;;;;5054426;28;20128;-53
2021/11/04 05:39:17;;;;;;;0.95;0.50;;;;;;;;;;5055159;28;20056;-57
2021/11/04 05:41:43;;;;;;;1.45;1.35;;;;;;;;;;5055088;28;20386;-56
2021/11/04 05:44:09;;;;;;;1.23;0.70;;;;;;;;;;5054799;28;20111;-54
2021/11/04 05:46:35;;;;;;;0.73;0.40;;;;;;;;;;5054429;28;20067;-57
2021/11/04 05:49:01;;;;;;;1.05;0.52;;;;;;;;;;5054388;28;20369;-56
2021/11/04 05:51:27;;;;;;;1.10;0.50;;;;;;;;;;5055076;28;20025;-57
2021/11/04 05:53:53;;;;;;;1.23;0.73;;;;;;;;;;5054445;28;20105;-57
2021/11/04 05:56:19;;;;;;;1.90;0.95;;;;;;;;;;5054182;28;20037;-57
2021/11/04 05:58:45;;;;;;;1.83;1.00;;;;;;;;;;5054549;28;20021;-57
2021/11/04 06:01:11;;;;;;;1.20;0.70;;;;;;;;;;5054748;28;20021;-57
2021/11/04 06:03:37;;;;;;;2.42;0.98;;;;;;;;;;5054868;28;20021;-57
2021/11/04 06:06:03;;;;;;;1.33;0.95;;;;;;;;;;5054163;28;20095;-56
2021/11/04 06:08:29;;;;;;;1.23;0.73;;;;;;;;;;5053948;28;20036;-55
2021/11/04 06:10:55;;;;;;;1.42;0.60;;;;;;;;;;5054531;28;20028;-56
2021/11/04 06:13:21;;;;;;;1.52;0.60;;;;;;;;;;5054232;28;20020;-56
2021/11/04 06:15:47;;;;;;;1.73;1.10;;;;;;;;;;5054145;28;20047;-56
2021/11/04 06:18:13;;;;;;;2.22;0.98;;;;;;;;;;5053774;28;20025;-57
2021/11/04 06:20:38;;;;;;;1.50;0.85;;;;;;;;;;5054516;28;20021;-56
2021/11/04 06:23:04;;;;;;;1.95;1.13;;;;;;;;;;5052653;28;20146;-57
2021/11/04 06:25:30;;;;;;;1.83;1.02;;;;;;;;;;5053667;28;20485;-57
2021/11/04 06:27:56;;;;;;;1.50;0.80;;;;;;;;;;5052465;28;20025;-58
2021/11/04 06:30:22;;;;;;;1.90;1.05;;;;;;;;;;5055254;28;20529;-57
2021/11/04 06:32:49;;;;;;;1.50;0.90;;;;;;;;;;5062731;28;20056;-57
2021/11/04 06:35:16;;;;;;;1.33;0.82;;;;;;;;;;5064316;28;20039;-57
2021/11/04 06:37:42;;;;;;;1.83;1.10;;;;;;;;;;5060636;28;20033;-58
2021/11/04 06:40:09;;;;;;;2.08;1.10;;;;;;;;;;5053736;28;20126;-57
2021/11/04 06:42:35;;;;;;;2.35;1.20;;;;;;;;;;5053295;28;20100;-56
2021/11/04 06:45:01;;;;;;;5.00;3.85;;;;;;;;;;5053641;28;20504;-57
2021/11/04 06:47:31;;;;;;;2.55;1.85;;;;;;;;;;5060429;28;20116;-57
2021/11/04 06:49:58;;;;;;;1.42;0.90;;;;;;;;;;5055929;28;20108;-57
2021/11/04 06:52:25;;;;;;;1.65;1.15;;;;;;;;;;5058229;28;20024;-58
2021/11/04 06:54:55;;;;;;;2.20;1.05;;;;;;;;;;5062205;28;20029;-56
2021/11/04 06:57:24;;;;;;;2.63;1.40;;;;;;;;;;5072895;28;20363;-58
2021/11/04 06:59:51;;;;;;;3.40;1.73;;;;;;;;;;5073462;28;20035;-57
2021/11/04 07:02:33;;;;;;;2.50;1.33;;;;;;;;;;5070696;28;20025;-58
2021/11/04 07:04:59;;;;;;;1.45;1.00;;;;;;;;;;5052980;28;20090;-57
2021/11/04 07:07:25;;;;;;;1.40;0.98;;;;;;;;;;5052363;28;20195;-58
2021/11/04 07:09:52;;;;;;;4.57;1.33;;;;;;;;;;5053104;28;20032;-55
2021/11/04 07:12:18;;;;;;;2.30;1.48;;;;;;;;;;5053190;28;20025;-55
2021/11/04 07:14:44;;;;;;;2.47;1.33;;;;;;;;;;5052982;28;20493;-57
2021/11/04 07:17:11;;;;;;;3.45;1.67;;;;;;;;;;5052630;28;20116;-57
2021/11/04 07:19:38;;;;;;;1.70;1.00;;;;;;;;;;5053207;28;20021;-56
2021/11/04 07:22:04;;;;;;;2.03;1.30;;;;;;;;;;5052805;28;20353;-58
2021/11/04 07:24:31;;;;;;;1.83;1.00;;;;;;;;;;5052816;28;20043;-58
2021/11/04 07:27:05;;;;;;;2.15;1.02;;;;;;;;;;5052082;28;20037;-59
2021/11/04 07:29:34;;;;;;;2.00;1.05;;;;;;;;;;5052298;28;20063;-58
2021/11/04 07:32:01;;;;;;;2.47;1.10;;;;;;;;;;5052770;28;20117;-58
2021/11/04 07:34:29;;;;;;;1.52;0.90;;;;;;;;;;5051752;28;20463;-58
2021/11/04 07:36:56;;;;;;;2.88;1.50;;;;;;;;;;5052192;28;20086;-58
2021/11/04 07:39:22;;;;;;;3.85;1.63;;;;;;;;;;5052814;28;20036;-57
2021/11/04 07:41:48;;;;;;;1.33;1.00;;;;;;;;;;5052884;28;20470;-58
2021/11/04 07:44:14;;;;;;;2.28;1.15;;;;;;;;;;5052419;28;20028;-57
2021/11/04 07:46:40;;;;;;;1.95;0.88;;;;;;;;;;5051731;28;20033;-57
2021/11/04 07:49:06;;;;;;;1.08;0.70;;;;;;;;;;5052320;28;20082;-58
2021/11/04 07:51:32;;;;;;;1.77;1.35;;;;;;;;;;5052565;28;20033;-58
2021/11/04 07:53:58;;;;;;;4.25;1.88;;;;;;;;;;5052724;28;20493;-59
2021/11/04 07:56:24;;;;;;;1.55;0.98;;;;;;;;;;5051760;28;20028;-58
2021/11/04 07:58:50;;;;;;;1.60;0.80;;;;;;;;;;5052350;28;20032;-58
2021/11/04 08:01:16;;;;;;;2.22;1.38;;;;;;;;;;5051774;28;20028;-56
2021/11/04 08:03:43;;;;;;;2.25;1.30;;;;;;;;;;5052134;28;20163;-57
2021/11/04 08:06:09;;;;;;;2.17;1.33;;;;;;;;;;5051589;28;20045;-54
2021/11/04 08:08:36;;;;;;;3.10;1.45;;;;;;;;;;5052106;28;20036;-58
2021/11/04 08:11:02;;;;;;;1.50;1.05;;;;;;;;;;5052081;28;20040;-57
2021/11/04 08:13:28;;;;;;;3.13;1.48;;;;;;;;;;5052217;28;20025;-57
2021/11/04 08:15:54;;;;;;;2.00;1.25;;;;;;;;;;5052087;28;20490;-56
2021/11/04 08:18:20;;;;;;;1.95;1.38;;;;;;;;;;5050679;28;20029;-57
2021/11/04 08:20:46;;;;;;;3.50;1.23;;;;;;;;;;5052218;28;20057;-58
2021/11/04 08:23:12;;;;;;;1.80;1.05;;;;;;;;;;5052272;28;20473;-57
2021/11/04 08:25:39;;;;;;;3.03;1.60;;;;;;;;;;5051849;28;20029;-58
2021/11/04 08:28:05;;;;;;;3.08;1.73;;;;;;;;;;5051434;28;20021;-57
2021/11/04 08:30:31;;;;;;;4.95;1.95;;;;;;;;;;5052035;28;20051;-57
2021/11/04 08:32:57;;;;;;;6.20;1.13;;;;;;;;;;5051816;28;20414;-56
2021/11/04 08:35:23;;;;;;;2.25;1.30;;;;;;;;;;5051582;28;20033;-57
2021/11/04 08:37:49;;;;;;;1.67;1.08;;;;;;;;;;5051276;28;20094;-57
2021/11/04 08:40:15;;;;;;;2.60;1.42;;;;;;;;;;5051810;28;20025;-58
2021/11/04 08:42:41;;;;;;;3.80;1.60;;;;;;;;;;5051849;28;20412;-57
2021/11/04 08:45:07;;;;;;;4.13;1.98;;;;;;;;;;5053512;28;20027;-57
2021/11/04 08:47:33;;;;;;;2.40;1.30;;;;;;;;;;5054762;28;20044;-58
2021/11/04 08:50:00;;;;;;;2.60;1.48;;;;;;;;;;5056056;28;20527;-54
2021/11/04 08:52:26;;;;;;;2.10;1.17;;;;;;;;;;5055895;28;20147;-58
2021/11/04 08:54:53;;;;;;;4.05;3.00;;;;;;;;;;5056087;28;20032;-57
2021/11/04 08:57:19;;;;;;;3.03;2.40;;;;;;;;;;5054990;28;20533;-57
2021/11/04 08:59:45;;;;;;;2.28;1.73;;;;;;;;;;5055852;28;20482;-57
2021/11/04 09:02:12;;;;;;;2.15;1.27;;;;;;;;;;5055485;28;20444;-58
2021/11/04 09:04:42;;;;;;;4.72;2.45;;;;;;;;;;5056026;28;20028;-57
2021/11/04 09:07:08;;;;;;;2.72;1.67;;;;;;;;;;5054733;28;20051;-58
2021/11/04 09:09:34;;;;;;;4.63;2.28;;;;;;;;;;5055833;28;20051;-57
2021/11/04 09:12:00;;;;;;;4.70;1.48;;;;;;;;;;5055628;28;20033;-57
2021/11/04 09:14:27;;;;;;;3.25;1.75;;;;;;;;;;5055528;28;20377;-58
2021/11/04 09:16:53;;;;;;;2.58;1.70;;;;;;;;;;5054154;28;20066;-57
2021/11/04 09:19:19;;;;;;;2.20;1.30;;;;;;;;;;5055748;28;20433;-58
2021/11/04 09:21:45;;;;;;;3.72;2.03;;;;;;;;;;5055372;28;20121;-57
2021/11/04 09:24:12;;;;;;;4.90;2.70;;;;;;;;;;5055456;28;20111;-57
2021/11/04 09:26:39;;;;;;;2.53;1.52;;;;;;;;;;5054348;28;20064;-56
2021/11/04 09:29:05;;;;;;;3.50;1.50;;;;;;;;;;5053883;28;20025;-58
2021/11/04 09:31:32;;;;;;;1.77;1.23;;;;;;;;;;5055380;28;20032;-57
2021/11/04 09:33:58;;;;;;;1.85;1.13;;;;;;;;;;5055409;28;20021;-57
2021/11/04 09:36:27;;;;;;;5.40;1.58;;;;;;;;;;5054273;28;20037;-58
2021/11/04 09:38:53;;;;;;;2.33;1.42;;;;;;;;;;5054994;28;20043;-55
2021/11/04 09:41:20;;;;;;;2.00;1.15;;;;;;;;;;5055165;28;20025;-54
2021/11/04 09:43:47;;;;;;;2.88;1.30;;;;;;;;;;5054874;28;20383;-57
2021/11/04 09:46:13;;;;;;;2.00;1.13;;;;;;;;;;5054403;28;20037;-57
2021/11/04 09:48:39;;;;;;;3.80;1.75;;;;;;;;;;5054771;28;20029;-57
2021/11/04 09:51:05;;;;;;;2.10;1.10;;;;;;;;;;5055001;28;20485;-57
2021/11/04 09:53:31;;;;;;;2.25;1.10;;;;;;;;;;5054707;28;20250;-57
2021/11/04 09:55:59;;;;;;;2.22;1.27;;;;;;;;;;5053816;28;20028;-55
2021/11/04 09:58:25;;;;;;;2.03;1.08;;;;;;;;;;5053785;28;20363;-58
2021/11/04 10:00:51;;;;;;;2.65;1.10;;;;;;;;;;5054993;28;20040;-56
2021/11/04 10:03:17;;;;;;;1.52;0.90;;;;;;;;;;5054730;28;20036;-56
2021/11/04 10:05:47;;;;;;;1.45;0.68;;;;;;;;;;5054375;28;20025;-57
2021/11/04 10:08:16;;;;;;;1.38;0.70;;;;;;;;;;5053768;28;20364;-55
2021/11/04 10:10:43;;;;;;;1.05;0.55;;;;;;;;;;5054457;28;20083;-56
2021/11/04 10:13:10;;;;;;;0.52;0.32;;;;;;;;;;5054601;28;20411;-55
2021/11/04 10:15:38;;;;;;;1.20;0.70;;;;;;;;;;5053989;28;20489;-55
2021/11/04 10:18:14;;;;;;;0.93;0.50;;;;;;;;;;5053892;28;20021;-57
2021/11/04 10:20:41;;;;;;;1.10;0.50;;;;;;;;;;5054537;28;20024;-55
2021/11/04 10:23:14;;;;;;;1.10;0.63;;;;;;;;;;5053983;28;20021;-56
2021/11/04 10:25:41;;;;;;;1.23;0.55;;;;;;;;;;5053808;28;20028;-56
2021/11/04 10:28:30;;;;;;;1.48;0.80;;;;;;;;;;5053594;28;20113;-56
2021/11/04 10:30:59;;;;;;;0.77;0.50;;;;;;;;;;5054259;28;20060;-56
2021/11/04 10:33:33;;;;;;;1.40;0.80;;;;;;;;;;5054344;28;20020;-55
2021/11/04 10:36:02;;;;;;;1.25;0.68;;;;;;;;;;5053809;28;20037;-57
2021/11/04 10:38:32;;;;;;;1.52;0.73;;;;;;;;;;5053213;28;20536;-56
2021/11/04 10:40:58;;;;;;;1.50;1.20;;;;;;;;;;5054209;28;20025;-57
2021/11/04 10:43:24;;;;;;;1.92;0.65;;;;;;;;;;5053905;28;20036;-55
2021/11/04 10:46:04;;;;;;;1.60;0.47;;;;;;;;;;5053697;28;20029;-56
2021/11/04 10:48:31;;;;;;;3.25;0.93;;;;;;;;;;5053091;28;20017;-56
2021/11/04 10:50:57;;;;;;;1.20;0.73;;;;;;;;;;5054055;28;20017;-57
2021/11/04 10:53:23;;;;;;;3.25;0.70;;;;;;;;;;5053633;28;20021;-58
2021/11/04 10:56:08;;;;;;;1.23;0.50;;;;;;;;;;5053452;28;20482;-56
2021/11/04 10:58:34;;;;;;;2.35;0.85;;;;;;;;;;5053339;28;20029;-55
2021/11/04 11:01:03;;;;;;;1.83;0.98;;;;;;;;;;5052237;28;20106;-56
2021/11/04 11:03:30;;;;;;;3.45;1.10;;;;;;;;;;5053488;28;20029;-57
2021/11/04 11:06:06;;;;;;;1.10;0.65;;;;;;;;;;5053273;28;20433;-58
2021/11/04 11:08:32;;;;;;;2.45;1.75;;;;;;;;;;5051656;28;20126;-59
2021/11/04 11:10:58;;;;;;;3.08;0.70;;;;;;;;;;5053237;28;20028;-57
2021/11/04 11:13:24;;;;;;;1.80;0.82;;;;;;;;;;5052840;28;20116;-59
2021/11/04 11:15:53;;;;;;;2.15;0.90;;;;;;;;;;5053701;28;20056;-58
2021/11/04 11:18:21;;;;;;;2.05;0.93;;;;;;;;;;5051810;28;20382;-57
2021/11/04 11:20:48;;;;;;;2.35;1.17;;;;;;;;;;5053173;28;20528;-58
2021/11/04 11:23:22;;;;;;;2.03;0.60;;;;;;;;;;5053022;28;20063;-58
2021/11/04 11:25:56;;;;;;;2.03;0.90;;;;;;;;;;5052404;28;20056;-58
2021/11/04 11:28:23;;;;;;;1.70;0.85;;;;;;;;;;5052584;28;20035;-57
2021/11/04 11:31:07;;;;;;;1.55;0.88;;;;;;;;;;5053010;28;20029;-57
2021/11/04 11:33:33;;;;;;;2.75;1.35;;;;;;;;;;5052942;28;20025;-58
2021/11/04 11:36:26;;;;;;;1.77;1.30;;;;;;;;;;5052842;28;20497;-57
2021/11/04 11:38:55;;;;;;;2.95;1.38;;;;;;;;;;5051185;28;20047;-55
2021/11/04 11:41:25;;;;;;;2.47;1.40;;;;;;;;;;5052846;28;20493;-57
2021/11/04 11:43:53;;;;;;;2.00;1.33;;;;;;;;;;5052382;28;20035;-58
2021/11/04 11:46:19;;;;;;;1.90;1.35;;;;;;;;;;5052036;28;20097;-58
2021/11/04 11:49:05;;;;;;;5.57;2.20;;;;;;;;;;5052633;28;20104;-57
2021/11/04 11:51:57;;;;;;;3.42;2.05;;;;;;;;;;5053054;28;20029;-57
2021/11/04 11:54:43;;;;;;;3.20;2.40;;;;;;;;;;5049674;28;20039;-57
2021/11/04 11:57:12;;;;;;;2.53;1.98;;;;;;;;;;5051923;28;20029;-58
2021/11/04 11:59:49;;;;;;;4.10;2.90;;;;;;;;;;5052925;28;20029;-57
2021/11/04 12:02:34;;;;;;;4.53;3.22;;;;;;;;;;5052295;28;20021;-57
2021/11/04 12:05:18;;;;;;;6.00;3.03;;;;;;;;;;5052390;28;20025;-58
2021/11/04 12:07:44;;;;;;;3.83;3.35;;;;;;;;;;5051554;28;20098;-57
2021/11/04 12:10:29;;;;;;;4.88;3.70;;;;;;;;;;5052091;28;20025;-57
2021/11/04 12:12:55;;;;;;;6.38;3.88;;;;;;;;;;5052168;28;20048;-56
2021/11/04 12:15:21;;;;;;;4.82;3.08;;;;;;;;;;5052218;28;20045;-55
2021/11/04 12:18:09;;;;;;;4.88;3.72;;;;;;;;;;5051607;28;20040;-56
2021/11/04 12:20:36;;;;;;;5.47;3.80;;;;;;;;;;5052076;28;20029;-57
2021/11/04 12:23:02;;;;;;;5.25;3.55;;;;;;;;;;5051990;28;20429;-56
2021/11/04 12:25:29;;;;;;;4.20;3.58;;;;;;;;;;5051901;28;20468;-58
2021/11/04 12:27:58;;;;;;;6.68;4.32;;;;;;;;;;5051297;28;20075;-57
2021/11/04 12:30:25;;;;;;;4.70;3.65;;;;;;;;;;5051658;28;20074;-56
2021/11/04 12:33:08;;;;;;;6.25;4.55;;;;;;;;;;5051944;28;20021;-57
2021/11/04 12:35:47;;;;;;;5.88;4.13;;;;;;;;;;5052049;28;20033;-58
2021/11/04 12:38:13;;;;;;;5.05;3.83;;;;;;;;;;5051451;28;20024;-57
2021/11/04 12:40:39;;;;;;;6.95;4.43;;;;;;;;;;5051910;28;20021;-58
2021/11/04 12:43:07;;;;;;;5.85;4.90;;;;;;;;;;5051471;28;20033;-57
2021/11/04 12:45:33;;;;;;;7.20;5.32;;;;;;;;;;5052099;28;20405;-58
2021/11/04 12:48:00;;;;;;;6.20;4.00;;;;;;;;;;5051474;28;20044;-58
2021/11/04 12:50:27;;;;;;;5.68;4.82;;;;;;;;;;5051984;28;20441;-57
2021/11/04 12:53:07;;;;;;;5.40;4.35;;;;;;;;;;5051570;28;20033;-54
2021/11/04 12:55:33;;;;;;;5.25;3.70;;;;;;;;;;5051583;28;20021;-58
2021/11/04 12:58:00;;;;;;;6.55;4.75;;;;;;;;;;5051171;28;20021;-55
2021/11/04 13:00:26;;;;;;;5.40;4.50;;;;;;;;;;5050641;28;20021;-57
2021/11/04 13:02:52;;;;;;;6.70;4.50;;;;;;;;;;5050915;28;20032;-57
2021/11/04 13:05:19;;;;;;;7.47;4.55;;;;;;;;;;5051710;28;20021;-57
2021/11/04 13:07:49;;;;;;;5.68;4.30;;;;;;;;;;5050937;28;20092;-58
2021/11/04 13:10:20;;;;;;;7.55;4.88;;;;;;;;;;5051734;28;20120;-57
2021/11/04 13:12:47;;;;;;;5.70;4.63;;;;;;;;;;5051405;28;20486;-58
2021/11/04 13:15:19;;;;;;;8.45;5.15;;;;;;;;;;5051677;28;20066;-56
2021/11/04 13:17:50;;;;;;;6.45;4.97;;;;;;;;;;5050624;28;20033;-58
2021/11/04 13:20:18;;;;;;;6.95;5.40;;;;;;;;;;5051457;28;20021;-58
2021/11/04 13:22:46;;;;;;;5.18;4.15;;;;;;;;;;5051506;28;20025;-57
2021/11/04 13:25:17;;;;;;;5.80;5.22;;;;;;;;;;5049551;28;20023;-58
2021/11/04 13:27:43;;;;;;;6.10;5.10;;;;;;;;;;5044997;28;20654;-58
2021/11/04 13:30:10;;;;;;;7.70;5.57;;;;;;;;;;5049352;28;20087;-58
2021/11/04 13:32:36;;;;;;;7.88;5.10;;;;;;;;;;5052241;28;20021;-58
2021/11/04 13:35:04;;;;;;;7.82;5.32;;;;;;;;;;5053529;28;20316;-58
2021/11/04 13:37:30;;;;;;;5.90;4.65;;;;;;;;;;5053040;28;20045;-57
2021/11/04 13:39:57;;;;;;;7.65;5.32;;;;;;;;;;5054066;28;20048;-58
2021/11/04 13:42:28;;;;;;;6.40;4.53;;;;;;;;;;5053250;28;20095;-56
2021/11/04 13:45:05;;;;;;;7.47;5.25;;;;;;;;;;5057324;28;20557;-57
2021/11/04 13:47:35;;;;;;;4.50;3.78;;;;;;;;;;5052913;28;20103;-58
2021/11/04 13:50:01;;;;;;;4.85;3.70;;;;;;;;;;5053312;28;20374;-57
2021/11/04 13:52:26;;;;;;;6.25;4.00;;;;;;;;;;5052619;28;20116;-57
2021/11/04 13:54:52;;;;;;;4.90;4.10;;;;;;;;;;5051948;28;20108;-58
2021/11/04 13:57:18;;;;;;;6.18;4.30;;;;;;;;;;5051976;28;20021;-60
2021/11/04 13:59:59;;;;;;;4.38;3.38;;;;;;;;;;5052451;28;20033;-57
2021/11/04 14:02:26;;;;;;;4.95;4.30;;;;;;;;;;5052599;28;20033;-56
2021/11/04 14:04:53;;;;;;;6.30;4.70;;;;;;;;;;5052556;28;20490;-57
2021/11/04 14:07:50;;;;;;;4.55;3.75;;;;;;;;;;5050720;28;20351;-57
2021/11/04 14:10:17;;;;;;;4.97;4.15;;;;;;;;;;5034833;28;20391;-55
2021/11/04 14:12:45;;;;;;;5.05;3.33;;;;;;;;;;5051641;28;20032;-56
2021/11/04 14:15:12;;;;;;;5.05;4.13;;;;;;;;;;5052891;28;20450;-56
2021/11/04 14:17:45;;;;;;;7.40;4.38;;;;;;;;;;5049705;28;20033;-61
2021/11/04 14:20:11;;;;;;;5.32;4.28;;;;;;;;;;5050915;28;20025;-57
2021/11/04 14:22:38;;;;;;;5.78;4.53;;;;;;;;;;5052059;28;20078;-57
2021/11/04 14:25:05;;;;;;;3.92;3.50;;;;;;;;;;5051452;28;20074;-58
2021/11/04 14:27:31;;;;;;;6.10;4.28;;;;;;;;;;5049303;28;20067;-56
2021/11/04 14:29:57;;;;;;;4.85;4.25;;;;;;;;;;5051127;28;20037;-57
2021/11/04 14:32:23;;;;;;;5.82;4.82;;;;;;;;;;5050279;28;20528;-58
2021/11/04 14:34:49;;;;;;;4.70;3.92;;;;;;;;;;5047248;28;20482;-56
2021/11/04 14:37:15;;;;;;;4.70;3.13;;;;;;;;;;5049727;28;20123;-57
2021/11/04 14:39:41;;;;;;;5.25;3.22;;;;;;;;;;5051324;28;20119;-56
2021/11/04 14:42:07;;;;;;;4.53;3.35;;;;;;;;;;5050014;28;20028;-56
2021/11/04 14:44:33;;;;;;;4.75;4.15;;;;;;;;;;5050696;28;20033;-57
2021/11/04 14:46:59;;;;;;;3.50;2.90;;;;;;;;;;5050267;28;20112;-55